Time;durP1;ratioP1;P1;durP2;ratioP2;P2;SDS_P1;SDS_P2;PMS_P1;PMS_P2;Temp;Humidity;BMP_temperature;BMP_pressure;BME280_temperature;BME280_humidity;BME280_pressure;Samples;Min_cycle;Max_cycle;Signal;HPM_P1;HPM_P2
2022/06/17 00:03:37;;;;;;;6.57;3.33;;;;;;;12.03;100.00;97233.22;10376809;28;20189;-59
2022/06/17 00:08:45;;;;;;;4.37;3.77;;;;;;;12.08;100.00;97225.72;10376227;28;20220;-59
2022/06/17 00:13:46;;;;;;;9.37;4.03;;;;;;;11.84;100.00;97235.97;10359193;28;20194;-58
2022/06/17 00:18:46;;;;;;;6.13;4.00;;;;;;;11.84;100.00;97225.47;10376463;28;20695;-58
2022/06/17 00:23:46;;;;;;;11.10;3.83;;;;;;;11.83;100.00;97226.47;10376071;28;20560;-57
2022/06/17 00:28:48;;;;;;;6.43;3.60;;;;;;;11.83;100.00;97229.09;10376114;28;20209;-58
2022/06/17 00:33:48;;;;;;;8.30;3.83;;;;;;;11.76;100.00;97229.69;10375850;28;20269;-58
2022/06/17 00:38:54;;;;;;;6.50;3.50;;;;;;;11.74;100.00;97244.75;10375728;28;20699;-55
2022/06/17 00:43:55;;;;;;;6.67;3.97;;;;;;;11.52;100.00;97237.34;10375447;28;20613;-56
2022/06/17 00:49:05;;;;;;;5.40;3.73;;;;;;;11.59;100.00;97235.75;10375345;28;20205;-56
2022/06/17 00:54:16;;;;;;;7.83;3.77;;;;;;;11.50;100.00;97218.28;10357610;28;20203;-58
2022/06/17 00:59:17;;;;;;;4.97;3.80;;;;;;;11.31;100.00;97225.34;10356755;28;20244;-56
2022/06/17 01:04:30;;;;;;;7.43;3.90;;;;;;;11.25;100.00;97228.56;10389813;28;20692;-55
2022/06/17 01:14:53;;;;;;;4.27;3.87;;;;;;;10.98;100.00;97221.53;10359691;28;20265;-57
2022/06/17 01:19:57;;;;;;;7.40;3.90;;;;;;;10.87;100.00;97233.88;10356577;28;20209;-56
2022/06/17 01:25:09;;;;;;;9.10;4.33;;;;;;;10.79;100.00;97239.00;10356400;28;20213;-53
2022/06/17 01:30:12;;;;;;;4.93;3.60;;;;;;;10.48;100.00;97233.19;10356138;28;20213;-54
2022/06/17 01:35:13;;;;;;;8.63;3.90;;;;;;;10.14;100.00;97254.63;10339962;28;20189;-57
2022/06/17 01:40:14;;;;;;;5.43;3.67;;;;;;;10.17;100.00;97242.06;10355444;28;20307;-55
2022/06/17 01:45:15;;;;;;;10.93;3.50;;;;;;;10.19;100.00;97244.53;10355666;28;20224;-57
2022/06/17 01:50:18;;;;;;;4.47;2.90;;;;;;;10.00;100.00;97254.06;10372884;28;20213;-53
2022/06/17 01:55:28;;;;;;;5.43;3.43;;;;;;;9.97;100.00;97261.41;10338466;28;20217;-57
2022/06/17 02:00:29;;;;;;;3.60;3.30;;;;;;;9.79;100.00;97250.78;10338748;28;20201;-51
2022/06/17 02:05:33;;;;;;;5.60;3.53;;;;;;;9.78;100.00;97251.75;10354124;28;20189;-57
2022/06/17 02:10:37;;;;;;;7.33;3.70;;;;;;;9.78;100.00;97267.44;10338630;28;20185;-57
2022/06/17 02:15:38;;;;;;;7.43;3.40;;;;;;;9.77;100.00;97269.25;10338028;28;20216;-54
2022/06/17 02:20:51;;;;;;;4.80;3.57;;;;;;;9.62;100.00;97281.09;10354696;28;20193;-55
2022/06/17 02:25:53;;;;;;;4.43;2.80;;;;;;;9.46;100.00;97284.22;10371773;28;20568;-55
2022/06/17 02:30:53;;;;;;;7.93;3.07;;;;;;;9.30;100.00;97287.34;10337823;28;20344;-55
2022/06/17 02:36:03;;;;;;;5.30;3.60;;;;;;;9.23;100.00;97292.31;10353742;28;20762;-52
2022/06/17 02:41:06;;;;;;;5.37;3.77;;;;;;;9.16;100.00;97306.84;10337538;28;20236;-52
2022/06/17 02:46:12;;;;;;;7.77;3.27;;;;;;;9.21;100.00;97298.63;10337621;28;20209;-53
2022/06/17 02:51:14;;;;;;;6.37;3.23;;;;;;;9.28;100.00;97299.75;10369534;28;20703;-53
2022/06/17 02:56:18;;;;;;;6.30;3.60;;;;;;;9.29;100.00;97301.38;10336622;28;20225;-52
2022/06/17 03:01:23;;;;;;;8.90;3.70;;;;;;;9.29;100.00;97304.00;10336754;28;20193;-55
2022/06/17 03:06:37;;;;;;;4.70;3.47;;;;;;;9.19;100.00;97296.13;10352861;28;20275;-54
2022/06/17 03:11:41;;;;;;;7.13;3.90;;;;;;;9.21;100.00;97301.22;10352856;28;20251;-56
2022/06/17 03:16:42;;;;;;;5.47;3.80;;;;;;;9.20;100.00;97299.56;10369053;28;20307;-54
2022/06/17 03:21:44;;;;;;;4.20;3.33;;;;;;;9.16;100.00;97308.63;10370772;28;20189;-50
2022/06/17 03:27:03;;;;;;;4.77;3.80;;;;;;;9.07;100.00;97295.41;10370033;28;20258;-55
2022/06/17 03:32:08;;;;;;;6.53;3.07;;;;;;;9.08;100.00;97293.59;10320919;28;20245;-52
2022/06/17 03:37:15;;;;;;;4.70;3.30;;;;;;;9.10;100.00;97295.13;10368209;28;20221;-56
2022/06/17 03:42:20;;;;;;;3.60;3.17;;;;;;;9.00;100.00;97302.09;10352661;28;20276;-56
2022/06/17 03:47:42;;;;;;;8.03;3.67;;;;;;;9.14;100.00;97308.75;10352001;28;20259;-58
2022/06/17 03:52:50;;;;;;;5.00;3.23;;;;;;;9.08;100.00;97315.38;10352098;28;20754;-50
2022/06/17 03:57:55;;;;;;;9.00;3.20;;;;;;;9.09;100.00;97309.16;10350911;28;20247;-54
2022/06/17 04:03:10;;;;;;;4.87;3.37;;;;;;;9.24;100.00;97322.69;10365957;28;20244;-53
2022/06/17 04:08:12;;;;;;;6.63;3.60;;;;;;;9.24;100.00;97317.47;10383613;28;20733;-57
2022/06/17 04:13:15;;;;;;;4.87;3.53;;;;;;;9.24;100.00;97333.16;10351779;28;20200;-55
2022/06/17 04:18:33;;;;;;;7.03;3.47;;;;;;;9.43;100.00;97339.41;10367532;28;20270;-58
2022/06/17 04:23:35;;;;;;;7.33;4.00;;;;;;;9.62;100.00;97341.25;10375402;28;20193;-50
2022/06/17 04:28:52;;;;;;;6.00;4.00;;;;;;;9.89;100.00;97353.69;10374215;28;20241;-54
2022/06/17 04:34:15;;;;;;;8.50;3.27;;;;;;;10.03;100.00;97362.94;10391983;28;20189;-49
2022/06/17 04:39:28;;;;;;;7.50;3.30;;;;;;;10.21;100.00;97357.81;10358356;28;20216;-51
2022/06/17 04:44:38;;;;;;;5.37;3.60;;;;;;;10.38;100.00;97345.03;10373375;28;20177;-50
2022/06/17 04:49:45;;;;;;;8.83;3.70;;;;;;;10.74;100.00;97348.69;10357579;28;20205;-50
2022/06/17 04:54:46;;;;;;;7.33;3.40;;;;;;;11.04;100.00;97352.88;10357762;28;20209;-51
2022/06/17 05:00:00;;;;;;;7.90;3.20;;;;;;;11.32;100.00;97352.91;10389789;28;20769;-50
2022/06/17 05:05:06;;;;;;;5.73;3.03;;;;;;;11.51;100.00;97346.72;10357237;28;20243;-53
2022/06/17 05:10:13;;;;;;;4.83;3.17;;;;;;;11.87;100.00;97353.84;10357143;28;20220;-52
2022/06/17 05:15:17;;;;;;;9.93;3.00;;;;;;;12.19;100.00;97347.25;10373026;28;20604;-52
2022/06/17 05:20:20;;;;;;;4.88;2.40;;;;;;;12.45;97.47;97335.00;10356911;28;20300;-57
2022/06/17 05:25:23;;;;;;;6.70;2.55;;;;;;;12.76;94.79;97326.66;10388908;28;20185;-58
2022/06/17 05:30:30;;;;;;;9.75;1.75;;;;;;;13.09;92.96;97331.28;10355522;28;20190;-58
2022/06/17 05:35:31;;;;;;;2.17;1.70;;;;;;;13.43;88.98;97318.16;10371963;28;20389;-58
2022/06/17 05:40:33;;;;;;;1.52;1.42;;;;;;;13.85;84.99;97290.91;10355779;28;20185;-57
2022/06/17 05:45:34;;;;;;;3.25;1.90;;;;;;;14.11;79.63;97253.06;10339426;28;20707;-52
2022/06/17 05:51:00;;;;;;;3.63;1.73;;;;;;;14.68;76.64;97227.63;10355420;28;20231;-56
2022/06/17 05:56:19;;;;;;;3.75;1.50;;;;;;;15.14;73.44;97204.00;10372281;28;20703;-54
2022/06/17 06:01:20;;;;;;;3.47;1.40;;;;;;;15.58;71.86;97192.84;10355023;28;20193;-55
2022/06/17 06:06:21;;;;;;;2.85;1.58;;;;;;;15.51;71.31;97216.50;10354482;28;20205;-56
2022/06/17 06:11:25;;;;;;;1.20;1.00;;;;;;;16.03;66.45;97130.44;10354440;28;20185;-55
2022/06/17 06:16:26;;;;;;;3.65;1.15;;;;;;;16.58;66.65;97180.38;10354311;28;20252;-56
2022/06/17 06:21:36;;;;;;;2.95;1.20;;;;;;;17.13;63.63;97127.94;10343972;28;20698;-54
2022/06/17 06:26:36;;;;;;;3.38;1.25;;;;;;;17.71;61.94;97113.81;10364162;28;20305;-56
2022/06/17 06:31:48;;;;;;;2.40;1.27;;;;;;;19.15;56.97;97054.72;10337393;28;20190;-59
2022/06/17 06:37:18;;;;;;;1.85;0.90;;;;;;;19.42;56.70;97071.50;10360766;28;20221;-57
2022/06/17 06:42:19;;;;;;;2.88;0.80;;;;;;;20.54;53.39;97048.63;10353294;28;20244;-58
2022/06/17 06:47:38;;;;;;;0.85;0.70;;;;;;;20.52;53.56;97062.16;10370933;28;20209;-58
2022/06/17 06:52:44;;;;;;;2.58;0.90;;;;;;;21.94;50.12;97023.66;10370957;28;20194;-60
2022/06/17 06:57:52;;;;;;;3.03;1.02;;;;;;;21.06;52.10;97068.03;10347513;23;20229;-52
2022/06/17 07:02:52;;;;;;;4.65;1.25;;;;;;;22.12;48.63;97024.72;10422754;28;20227;-54
2022/06/17 07:07:54;;;;;;;2.33;1.00;;;;;;;23.77;44.63;96978.97;10449834;28;20949;-52
2022/06/17 07:12:55;;;;;;;1.48;0.77;;;;;;;23.99;45.30;97004.06;10449056;28;20253;-56
2022/06/17 07:18:14;;;;;;;3.45;1.02;;;;;;;23.33;46.38;97024.75;10449084;28;20223;-56
2022/06/17 07:23:29;;;;;;;2.58;0.80;;;;;;;23.69;46.21;97047.81;10450853;28;20598;-54
2022/06/17 07:28:30;;;;;;;3.20;1.00;;;;;;;24.49;43.42;97008.03;10450205;28;20218;-52
2022/06/17 07:33:31;;;;;;;2.10;0.98;;;;;;;23.54;45.79;97041.28;10417733;28;20654;-51
2022/06/17 07:43:54;;;;;;;3.78;1.17;;;;;;;22.21;48.20;97084.75;10368338;28;20193;-51
2022/06/17 07:48:54;;;;;;;3.28;1.10;;;;;;;23.21;46.31;97075.53;10396196;28;20584;-53
2022/06/17 07:53:54;;;;;;;4.55;1.20;;;;;;;22.68;48.25;97093.06;10410571;28;20333;-52
2022/06/17 07:58:55;;;;;;;5.47;1.27;;;;;;;21.91;48.07;97074.78;10415465;28;20239;-58
2022/06/17 08:03:56;;;;;;;4.07;0.93;;;;;;;22.20;48.98;97126.63;10457772;28;20228;-52
2022/06/17 08:08:56;;;;;;;2.08;1.20;;;;;;;22.57;47.31;97100.00;10457067;28;20218;-56
2022/06/17 08:13:56;;;;;;;4.00;1.00;;;;;;;23.71;45.03;97081.56;10438796;28;20224;-55
2022/06/17 08:18:57;;;;;;;3.42;1.10;;;;;;;23.47;44.82;97057.44;10436487;28;20698;-52
2022/06/17 08:23:57;;;;;;;1.20;1.00;;;;;;;22.83;47.16;97127.38;10453526;28;20830;-52
2022/06/17 08:28:57;;;;;;;3.80;1.25;;;;;;;23.67;47.04;97140.84;10438232;28;20208;-53
2022/06/17 08:33:58;;;;;;;2.90;1.10;;;;;;;22.82;46.34;97084.88;10440415;28;20206;-54
2022/06/17 08:39:05;;;;;;;3.80;1.00;;;;;;;22.94;46.63;97125.81;10439404;28;20311;-53
2022/06/17 08:44:19;;;;;;;5.22;1.10;;;;;;;23.47;44.77;97078.84;10414374;28;20273;-52
2022/06/17 08:49:57;;;;;;;2.58;0.82;;;;;;;24.02;44.87;97116.00;10429303;28;20763;-53
2022/06/17 08:55:03;;;;;;;2.55;0.82;;;;;;;24.72;44.15;97132.28;10420491;28;20224;-52
2022/06/17 09:00:07;;;;;;;5.57;1.00;;;;;;;24.24;45.00;97134.16;10451169;28;20306;-55
2022/06/17 09:05:33;;;;;;;5.88;1.35;;;;;;;23.74;44.69;97102.50;10434300;28;20184;-52
2022/06/17 09:10:39;;;;;;;4.75;1.10;;;;;;;24.93;42.27;97091.44;10443151;28;20642;-56
2022/06/17 09:15:42;;;;;;;6.45;1.30;;;;;;;25.59;42.33;97109.78;10433814;28;20236;-52
2022/06/17 09:20:44;;;;;;;3.78;1.17;;;;;;;25.42;42.43;97090.16;10391696;28;20218;-52
2022/06/17 09:25:47;;;;;;;2.72;1.00;;;;;;;26.10;40.12;97049.91;10425128;28;20195;-54
2022/06/17 09:30:51;;;;;;;1.98;1.05;;;;;;;26.25;39.72;97041.22;10451023;28;20294;-57
2022/06/17 09:35:58;;;;;;;1.55;0.82;;;;;;;26.02;39.64;97035.03;10432749;28;20247;-59
2022/06/17 09:41:03;;;;;;;2.20;1.15;;;;;;;26.50;39.78;97049.59;10433125;28;20689;-58
2022/06/17 09:46:09;;;;;;;1.75;0.82;;;;;;;26.59;39.03;97046.47;10450096;28;20188;-55
2022/06/17 09:51:20;;;;;;;4.15;1.00;;;;;;;26.44;39.04;97030.97;10432857;28;20311;-53
2022/06/17 09:56:39;;;;;;;3.20;1.05;;;;;;;25.33;43.86;97137.19;10428376;28;20223;-60
2022/06/17 10:01:40;;;;;;;8.35;1.13;;;;;;;25.17;42.11;97072.53;10417582;28;20236;-57
2022/06/17 10:07:07;;;;;;;1.52;0.80;;;;;;;25.93;41.35;97074.06;10437025;28;20184;-58
2022/06/17 10:12:30;;;;;;;4.07;0.93;;;;;;;26.93;38.85;97030.19;10447899;28;20686;-58
2022/06/17 10:24:10;;;;;;;2.88;0.90;;;;;;;26.40;37.51;96962.69;10403497;28;20196;-59
2022/06/17 10:29:31;;;;;;;4.70;1.23;;;;;;;25.83;39.89;97015.66;10313406;28;20219;-57
2022/06/17 10:34:50;;;;;;;2.80;0.88;;;;;;;26.72;38.91;97016.53;10390094;28;20246;-55
2022/06/17 10:39:51;;;;;;;1.52;1.10;;;;;;;26.54;38.52;97004.25;10405598;28;20308;-53
2022/06/17 10:44:55;;;;;;;1.83;0.98;;;;;;;25.69;40.64;97033.19;10406926;28;20207;-55
2022/06/17 10:50:23;;;;;;;1.92;0.82;;;;;;;26.80;39.85;97048.34;10439661;28;20212;-54
2022/06/17 10:55:28;;;;;;;2.88;1.08;;;;;;;27.35;37.87;96994.53;10414952;28;20228;-57
2022/06/17 11:00:28;;;;;;;1.10;0.80;;;;;;;27.16;39.20;97031.75;10409202;28;20240;-58
2022/06/17 11:05:31;;;;;;;5.90;0.73;;;;;;;26.33;39.25;96987.06;10417333;28;20184;-54
2022/06/17 11:10:32;;;;;;;2.63;0.98;;;;;;;27.41;38.50;97006.97;10408488;28;20211;-60
2022/06/17 11:15:44;;;;;;;1.67;0.95;;;;;;;28.53;36.92;97000.59;10403404;28;20208;-60
2022/06/17 11:20:59;;;;;;;2.72;0.80;;;;;;;29.99;34.38;96965.28;10403395;28;20204;-61
2022/06/17 11:26:30;;;;;;;0.80;0.80;;;;;;;29.10;35.09;96960.25;10419448;28;20199;-57
2022/06/17 11:31:33;;;;;;;2.33;0.80;;;;;;;28.46;34.27;96908.38;10426740;28;20220;-60
2022/06/17 11:36:36;;;;;;;3.45;0.90;;;;;;;26.68;37.46;96924.84;10440440;28;20701;-58
2022/06/17 11:41:36;;;;;;;1.45;0.85;;;;;;;28.34;36.86;96989.47;10436732;28;20746;-57
2022/06/17 11:46:48;;;;;;;2.35;0.77;;;;;;;29.71;34.85;96964.78;10446373;28;20180;-58
2022/06/17 11:52:00;;;;;;;5.75;0.70;;;;;;;29.56;34.44;96938.63;10409610;28;20200;-61
2022/06/17 11:57:23;;;;;;;1.77;0.90;;;;;;;30.95;32.46;96932.59;10447598;28;20215;-60
2022/06/17 12:02:23;;;;;;;5.45;0.73;;;;;;;30.09;32.39;96872.56;10407976;28;20244;-60
2022/06/17 12:07:45;;;;;;;1.65;0.98;;;;;;;28.37;35.86;96921.56;10429342;28;20216;-60
2022/06/17 12:12:47;;;;;;;1.05;0.88;;;;;;;30.31;32.99;96913.50;10435407;28;20223;-61
2022/06/17 12:17:48;;;;;;;3.03;0.80;;;;;;;30.89;32.47;96912.88;10449146;28;20189;-60
2022/06/17 12:22:57;;;;;;;4.35;0.95;;;;;;;29.33;33.78;96875.25;10444712;28;20203;-59
2022/06/17 12:28:02;;;;;;;2.95;0.70;;;;;;;31.01;32.47;96903.59;10452384;28;20227;-61
2022/06/17 12:33:14;;;;;;;2.05;0.85;;;;;;;29.29;34.93;96925.44;10436253;28;20616;-60
2022/06/17 12:38:27;;;;;;;2.15;0.70;;;;;;;30.00;34.26;96939.84;10452230;28;20242;-61
2022/06/17 12:43:47;;;;;;;2.00;0.85;;;;;;;31.11;32.66;96925.16;10436020;28;20196;-61
2022/06/17 12:48:59;;;;;;;2.95;1.13;;;;;;;30.91;32.21;96875.50;10453790;28;20243;-61
2022/06/17 12:54:37;;;;;;;1.10;0.82;;;;;;;31.45;32.01;96892.59;10438162;28;20184;-59
2022/06/17 12:59:43;;;;;;;3.63;0.68;;;;;;;31.55;30.55;96858.41;10435041;28;20376;-61
2022/06/17 13:05:10;;;;;;;1.83;0.93;;;;;;;28.57;35.15;96888.44;10431513;28;20204;-60
2022/06/17 13:15:46;;;;;;;0.63;0.60;;;;;;;31.56;30.39;96863.53;10437204;28;20267;-61
2022/06/17 13:20:57;;;;;;;1.42;0.55;;;;;;;32.11;29.80;96854.22;10452419;28;20238;-61
2022/06/17 13:26:07;;;;;;;3.78;0.80;;;;;;;30.10;30.52;96772.31;10434279;28;20233;-61
2022/06/17 13:31:24;;;;;;;3.75;0.80;;;;;;;30.12;33.11;96889.00;10451820;28;20211;-61
2022/06/17 13:36:46;;;;;;;3.90;0.88;;;;;;;31.68;30.27;96840.66;10433459;28;20218;-61
2022/06/17 13:41:55;;;;;;;4.28;0.98;;;;;;;31.41;30.20;96817.66;10431660;28;20219;-61
2022/06/17 13:47:36;;;;;;;2.10;0.80;;;;;;;31.86;31.14;96885.94;10450846;28;20219;-60
2022/06/17 13:53:11;;;;;;;3.17;0.70;;;;;;;32.72;28.94;96837.03;10432453;28;20731;-61
2022/06/17 13:58:20;;;;;;;2.80;0.60;;;;;;;34.81;25.92;96788.69;10450904;28;20227;-62
2022/06/17 14:03:22;;;;;;;1.38;0.60;;;;;;;32.12;28.22;96742.78;10450647;28;20219;-61
2022/06/17 14:08:50;;;;;;;1.98;0.80;;;;;;;32.41;28.99;96795.22;10432785;28;20310;-57
2022/06/17 14:14:19;;;;;;;1.05;0.57;;;;;;;33.53;27.95;96797.03;10431124;28;20209;-56
2022/06/17 14:19:25;;;;;;;0.85;0.65;;;;;;;34.17;26.87;96782.59;10449982;28;20302;-57
2022/06/17 14:24:44;;;;;;;1.52;0.50;;;;;;;31.79;28.33;96717.53;10449534;28;20191;-58
2022/06/17 14:29:44;;;;;;;2.17;0.82;;;;;;;29.16;31.58;96725.25;10449784;28;20216;-58
2022/06/17 14:34:58;;;;;;;1.98;0.55;;;;;;;28.38;32.28;96706.81;10449272;28;20219;-59
2022/06/17 14:40:20;;;;;;;1.15;0.65;;;;;;;33.75;27.01;96804.47;10449705;28;20235;-60
2022/06/17 14:45:49;;;;;;;3.63;0.80;;;;;;;35.28;26.15;96823.66;10417954;28;20211;-59
2022/06/17 14:50:55;;;;;;;1.25;0.75;;;;;;;36.65;24.15;96788.22;10425684;28;20234;-60
2022/06/17 14:56:01;;;;;;;3.03;0.75;;;;;;;37.50;23.40;96790.19;10406484;28;20246;-59
2022/06/17 15:01:01;;;;;;;1.83;0.50;;;;;;;37.28;22.63;96758.50;10397978;28;20227;-61
2022/06/17 15:06:03;;;;;;;1.77;0.57;;;;;;;37.09;23.25;96761.59;10448282;28;20227;-59
2022/06/17 15:11:08;;;;;;;3.63;0.60;;;;;;;37.02;23.57;96772.25;10448135;28;20241;-58
2022/06/17 15:16:24;;;;;;;5.03;0.63;;;;;;;35.26;24.94;96710.69;10429483;28;20199;-59
2022/06/17 15:21:31;;;;;;;3.60;0.70;;;;;;;34.65;25.01;96700.38;10447609;28;20231;-58
2022/06/17 15:26:36;;;;;;;2.35;0.80;;;;;;;34.13;25.41;96682.59;10399811;28;20303;-57
2022/06/17 15:31:39;;;;;;;2.15;0.60;;;;;;;36.77;22.84;96745.53;10386223;28;20242;-59
2022/06/17 15:36:39;;;;;;;6.93;0.75;;;;;;;35.28;25.25;96749.34;10405833;28;20279;-58
2022/06/17 15:42:10;;;;;;;2.35;0.65;;;;;;;35.30;24.62;96714.41;10406337;28;20277;-57
2022/06/17 15:47:11;;;;;;;1.33;0.55;;;;;;;34.99;24.77;96707.09;10405930;28;20706;-57
2022/06/17 15:52:24;;;;;;;3.72;0.75;;;;;;;34.37;25.10;96681.50;10444755;28;20300;-58
2022/06/17 15:57:32;;;;;;;1.77;0.43;;;;;;;33.60;25.64;96672.47;10428970;28;20708;-57
2022/06/17 16:02:35;;;;;;;2.67;0.98;;;;;;;32.38;28.15;96700.91;10424923;28;20215;-58
2022/06/17 16:07:36;;;;;;;1.60;0.57;;;;;;;32.28;26.44;96636.81;10398226;28;20204;-55
2022/06/17 16:12:40;;;;;;;3.50;0.70;;;;;;;29.95;29.45;96629.25;10422923;28;20185;-60
2022/06/17 16:17:43;;;;;;;1.48;0.80;;;;;;;29.54;29.16;96641.13;10432405;28;20712;-59
2022/06/17 16:22:44;;;;;;;1.45;0.70;;;;;;;29.09;30.24;96673.47;10435521;28;20271;-58
2022/06/17 16:27:49;;;;;;;1.15;0.90;;;;;;;28.03;31.54;96674.25;10422678;28;20226;-57
2022/06/17 16:33:02;;;;;;;1.10;0.45;;;;;;;27.59;32.94;96739.31;10425007;28;20221;-57
2022/06/17 16:38:03;;;;;;;0.68;0.50;;;;;;;27.62;32.15;96706.47;10414459;28;20209;-57
2022/06/17 16:48:44;;;;;;;0.68;0.52;;;;;;;27.45;33.04;96733.63;10421880;28;20217;-57
2022/06/17 16:53:44;;;;;;;0.67;0.60;;;;;;;27.69;32.50;96739.34;10449221;28;20569;-60
2022/06/17 16:58:44;;;;;;;1.10;0.60;;;;;;;27.26;33.89;96773.63;10454320;28;20860;-57
2022/06/17 17:03:45;;;;;;;2.42;0.52;;;;;;;26.68;33.75;96752.06;10454262;28;20563;-56
2022/06/17 17:08:46;;;;;;;1.65;0.70;;;;;;;25.73;35.50;96771.34;10442331;28;20212;-54
2022/06/17 17:13:47;;;;;;;2.63;1.15;;;;;;;25.73;36.27;96804.34;10430244;28;20208;-55
2022/06/17 17:18:47;;;;;;;2.00;0.82;;;;;;;25.55;36.46;96818.88;10422920;28;20453;-54
2022/06/17 17:23:47;;;;;;;1.65;0.70;;;;;;;25.52;36.92;96850.78;10436254;28;20220;-52
2022/06/17 17:28:48;;;;;;;1.73;1.50;;;;;;;25.19;38.16;96884.59;10445466;28;20219;-55
2022/06/17 17:33:49;;;;;;;1.45;0.80;;;;;;;24.88;40.82;96954.63;10434858;28;20184;-53
2022/06/17 17:38:49;;;;;;;1.95;0.70;;;;;;;24.56;42.51;96997.16;10452475;28;20227;-57
2022/06/17 17:44:06;;;;;;;6.65;1.48;;;;;;;24.26;43.48;97018.81;10443550;28;20220;-53
2022/06/17 17:49:09;;;;;;;1.73;1.20;;;;;;;23.78;44.54;97045.63;10393049;28;20227;-55
2022/06/17 17:54:10;;;;;;;5.18;0.70;;;;;;;23.91;43.68;97027.72;10392724;28;20658;-56
2022/06/17 17:59:19;;;;;;;1.90;0.90;;;;;;;23.65;45.12;97048.50;10392723;28;20241;-56
2022/06/17 18:04:22;;;;;;;5.07;1.52;;;;;;;23.15;47.21;97089.78;10410010;28;20266;-57
2022/06/17 18:09:22;;;;;;;1.15;0.90;;;;;;;22.73;49.60;97135.13;10410001;28;20207;-54
2022/06/17 18:14:25;;;;;;;4.03;1.30;;;;;;;21.57;53.60;97198.75;10409716;28;20188;-57
2022/06/17 18:19:25;;;;;;;3.10;1.10;;;;;;;20.02;58.01;97258.69;10412327;28;20240;-58
2022/06/17 18:24:26;;;;;;;2.45;1.20;;;;;;;20.49;58.11;97248.88;10411395;28;20288;-53
2022/06/17 18:29:33;;;;;;;10.73;1.30;;;;;;;20.16;59.76;97257.69;10436680;28;20627;-56
2022/06/17 18:34:39;;;;;;;6.80;1.15;;;;;;;19.22;62.90;97277.88;10405628;28;20219;-57
2022/06/17 18:39:40;;;;;;;3.05;0.93;;;;;;;18.63;64.58;97266.66;10449672;28;20613;-57
2022/06/17 18:44:40;;;;;;;3.78;1.40;;;;;;;18.73;65.02;97247.78;10448994;28;20276;-54
2022/06/17 18:49:41;;;;;;;5.70;1.35;;;;;;;18.80;64.78;97219.41;10430999;28;20261;-52
2022/06/17 18:54:42;;;;;;;4.18;1.27;;;;;;;19.04;63.56;97212.00;10438581;28;20188;-52
2022/06/17 18:59:43;;;;;;;6.47;1.30;;;;;;;19.06;62.87;97194.03;10449235;28;20239;-53
2022/06/17 19:04:43;;;;;;;6.63;1.60;;;;;;;19.20;62.81;97198.38;10449109;28;20224;-52
2022/06/17 19:20:24;;;;;;;5.38;1.25;;;;;;;19.09;61.77;97180.34;10449031;28;20211;-52
2022/06/17 19:25:24;;;;;;;4.00;1.40;;;;;;;18.97;62.05;97182.75;10430657;28;20227;-51
2022/06/17 19:30:25;;;;;;;5.07;1.42;;;;;;;19.04;61.61;97188.09;10448844;28;20215;-52
2022/06/17 19:35:37;;;;;;;2.22;1.30;;;;;;;18.67;61.97;97188.31;10429829;28;20188;-51
2022/06/17 19:40:37;;;;;;;5.32;1.38;;;;;;;18.67;62.51;97198.13;10448740;28;20227;-51
2022/06/17 19:45:38;;;;;;;7.25;1.20;;;;;;;18.58;62.24;97194.81;10448341;28;20752;-52
2022/06/17 19:50:38;;;;;;;4.70;1.40;;;;;;;18.48;61.64;97181.91;10434309;28;20211;-51
2022/06/17 19:55:38;;;;;;;3.47;1.50;;;;;;;18.30;62.32;97193.00;10456374;28;20218;-51
2022/06/17 20:00:39;;;;;;;8.00;1.77;;;;;;;18.10;62.58;97198.16;10456452;28;20239;-53
2022/06/17 20:05:41;;;;;;;3.70;1.30;;;;;;;17.99;63.20;97204.81;10455890;28;20265;-51
2022/06/17 20:10:41;;;;;;;3.47;1.10;;;;;;;17.87;63.43;97203.66;10456063;28;20212;-53
2022/06/17 20:15:42;;;;;;;4.72;1.50;;;;;;;17.86;63.86;97219.75;10437830;28;20192;-51
2022/06/17 20:20:42;;;;;;;2.10;1.25;;;;;;;17.60;64.37;97214.00;10455608;28;20682;-53
2022/06/17 20:25:42;;;;;;;2.03;1.38;;;;;;;17.46;64.75;97231.59;10455481;28;20591;-51
2022/06/17 20:30:43;;;;;;;1.20;1.10;;;;;;;17.51;64.98;97230.22;10455371;28;20273;-51
2022/06/17 20:35:43;;;;;;;3.47;1.38;;;;;;;17.23;66.06;97233.56;10449538;28;20193;-52
2022/06/17 20:40:44;;;;;;;2.47;1.45;;;;;;;17.18;66.74;97247.38;10413714;28;20579;-51
2022/06/17 20:51:06;;;;;;;1.58;1.45;;;;;;;16.98;67.29;97247.09;10413565;28;20240;-51
2022/06/17 20:56:19;;;;;;;2.42;1.30;;;;;;;16.94;67.43;97229.97;10395487;28;20193;-51
2022/06/17 21:01:21;;;;;;;2.72;1.30;;;;;;;16.94;67.49;97241.34;10412683;28;20290;-51
2022/06/17 21:06:25;;;;;;;2.53;1.48;;;;;;;17.06;66.94;97225.00;10412204;28;20714;-51
2022/06/17 21:11:26;;;;;;;2.85;1.20;;;;;;;17.02;67.57;97229.03;10412570;28;20212;-50
2022/06/17 21:16:26;;;;;;;2.58;1.60;;;;;;;16.94;67.69;97227.31;10412027;28;20209;-51
2022/06/17 21:21:27;;;;;;;1.92;1.30;;;;;;;16.92;67.82;97227.50;10412242;28;20230;-50
2022/06/17 21:26:29;;;;;;;1.73;1.33;;;;;;;16.93;67.35;97212.44;10421082;28;20603;-52
2022/06/17 21:31:29;;;;;;;2.67;1.73;;;;;;;16.76;68.27;97222.34;10417115;28;20208;-51
2022/06/17 21:36:31;;;;;;;3.42;1.45;;;;;;;16.79;68.28;97214.03;10411508;28;20193;-51
2022/06/17 21:41:31;;;;;;;1.42;1.25;;;;;;;16.82;68.19;97218.16;10434257;28;20714;-51
2022/06/17 21:46:33;;;;;;;3.17;1.30;;;;;;;16.83;67.93;97203.91;10393899;28;20212;-51
2022/06/17 21:51:45;;;;;;;2.15;1.35;;;;;;;16.87;67.74;97207.88;10411474;28;20579;-52
2022/06/17 21:56:46;;;;;;;4.50;1.33;;;;;;;16.91;67.29;97196.72;10411113;28;20200;-51
2022/06/17 22:01:46;;;;;;;3.30;1.52;;;;;;;17.01;66.33;97177.91;10410862;28;20233;-51
2022/06/17 22:06:48;;;;;;;1.83;1.30;;;;;;;16.93;67.17;97180.66;10410779;28;20307;-52
2022/06/17 22:12:00;;;;;;;6.55;1.40;;;;;;;16.80;67.44;97191.88;10392412;28;20216;-51
2022/06/17 22:17:05;;;;;;;3.85;1.40;;;;;;;16.74;67.57;97187.34;10410524;28;20279;-57
2022/06/17 22:22:24;;;;;;;2.38;1.23;;;;;;;16.83;67.17;97174.81;10410561;28;20293;-58
2022/06/17 22:27:27;;;;;;;1.20;1.10;;;;;;;16.79;67.11;97168.25;10410150;28;20228;-54
2022/06/17 22:32:32;;;;;;;2.40;1.10;;;;;;;16.79;66.84;97170.91;10410116;28;20200;-58
2022/06/17 22:37:36;;;;;;;1.52;1.38;;;;;;;16.64;67.74;97176.19;10391981;28;20196;-56
2022/06/17 22:42:36;;;;;;;2.17;1.63;;;;;;;16.65;67.50;97177.84;10409802;28;20918;-56
2022/06/17 22:47:37;;;;;;;3.05;1.27;;;;;;;16.70;67.00;97165.69;10409126;28;20324;-55
2022/06/17 22:52:38;;;;;;;3.00;1.50;;;;;;;16.66;67.26;97164.44;10409449;28;20562;-58
2022/06/17 22:57:38;;;;;;;2.83;1.58;;;;;;;16.45;67.92;97156.41;10408627;28;20276;-53
2022/06/17 23:02:39;;;;;;;1.88;1.30;;;;;;;16.36;68.85;97175.00;10409136;28;20193;-57
2022/06/17 23:07:44;;;;;;;1.90;1.30;;;;;;;16.29;69.01;97175.91;10408601;28;20225;-57
2022/06/17 23:12:46;;;;;;;2.55;1.50;;;;;;;16.12;69.71;97189.28;10391125;28;20180;-55
2022/06/17 23:23:13;;;;;;;2.35;1.33;;;;;;;16.11;69.33;97160.41;10373075;28;20208;-54
2022/06/17 23:28:17;;;;;;;1.90;1.30;;;;;;;16.15;68.48;97129.97;10390785;28;20312;-57
2022/06/17 23:33:18;;;;;;;2.47;1.45;;;;;;;16.02;69.70;97152.56;10408304;28;20283;-55
2022/06/17 23:38:21;;;;;;;2.85;1.35;;;;;;;15.85;70.33;97161.66;10408032;28;20211;-52
2022/06/17 23:43:21;;;;;;;1.58;1.10;;;;;;;15.84;69.90;97154.72;10407940;28;20648;-53
2022/06/17 23:48:25;;;;;;;7.13;1.60;;;;;;;15.97;69.50;97144.34;10407807;28;20311;-52
2022/06/17 23:53:27;;;;;;;3.38;1.30;;;;;;;15.85;70.03;97151.91;10407611;28;20195;-55
2022/06/17 23:58:32;;;;;;;2.83;1.10;;;;;;;15.80;69.90;97146.34;10407791;28;20303;-52
